sensor_id;sensor_type;location;lat;lon;timestamp;P1;durP1;ratioP1;P2;durP2;ratioP2
68821;SDS011;55834;50.870;4.606;2023-02-04T00:01:35;11.40;;;6.22;;
68821;SDS011;55834;50.870;4.606;2023-02-04T00:04:01;8.40;;;6.47;;
68821;SDS011;55834;50.870;4.606;2023-02-04T00:06:26;12.60;;;7.13;;
68821;SDS011;55834;50.870;4.606;2023-02-04T00:08:52;12.88;;;6.72;;
68821;SDS011;55834;50.870;4.606;2023-02-04T00:11:17;9.63;;;5.97;;
68821;SDS011;55834;50.870;4.606;2023-02-04T00:13:42;9.00;;;6.60;;
68821;SDS011;55834;50.870;4.606;2023-02-04T00:16:08;14.50;;;7.10;;
68821;SDS011;55834;50.870;4.606;2023-02-04T00:18:33;12.23;;;7.67;;
68821;SDS011;55834;50.870;4.606;2023-02-04T00:20:58;10.63;;;6.77;;
68821;SDS011;55834;50.870;4.606;2023-02-04T00:23:24;10.17;;;6.50;;
68821;SDS011;55834;50.870;4.606;2023-02-04T00:25:49;15.33;;;7.27;;
68821;SDS011;55834;50.870;4.606;2023-02-04T00:28:14;8.83;;;6.90;;
68821;SDS011;55834;50.870;4.606;2023-02-04T00:30:40;12.57;;;6.87;;
68821;SDS011;55834;50.870;4.606;2023-02-04T00:33:05;11.23;;;6.00;;
68821;SDS011;55834;50.870;4.606;2023-02-04T00:35:30;11.37;;;7.03;;
68821;SDS011;55834;50.870;4.606;2023-02-04T00:37:56;11.05;;;7.32;;
68821;SDS011;55834;50.870;4.606;2023-02-04T00:40:22;8.57;;;5.13;;
68821;SDS011;55834;50.870;4.606;2023-02-04T00:42:48;13.53;;;7.20;;
68821;SDS011;55834;50.870;4.606;2023-02-04T00:45:13;12.70;;;7.67;;
68821;SDS011;55834;50.870;4.606;2023-02-04T00:47:39;10.40;;;6.03;;
68821;SDS011;55834;50.870;4.606;2023-02-04T00:50:05;15.35;;;6.38;;
68821;SDS011;55834;50.870;4.606;2023-02-04T00:52:30;11.25;;;7.25;;
68821;SDS011;55834;50.870;4.606;2023-02-04T00:54:56;11.40;;;6.68;;
68821;SDS011;55834;50.870;4.606;2023-02-04T00:57:21;11.47;;;6.77;;
68821;SDS011;55834;50.870;4.606;2023-02-04T00:59:46;10.13;;;6.97;;
68821;SDS011;55834;50.870;4.606;2023-02-04T01:02:12;11.23;;;7.03;;
68821;SDS011;55834;50.870;4.606;2023-02-04T01:04:37;15.10;;;8.83;;
68821;SDS011;55834;50.870;4.606;2023-02-04T01:07:02;12.20;;;6.93;;
68821;SDS011;55834;50.870;4.606;2023-02-04T01:09:28;14.03;;;6.83;;
68821;SDS011;55834;50.870;4.606;2023-02-04T01:11:53;16.43;;;9.07;;
68821;SDS011;55834;50.870;4.606;2023-02-04T01:14:18;12.33;;;7.03;;
68821;SDS011;55834;50.870;4.606;2023-02-04T01:16:44;12.15;;;8.57;;
68821;SDS011;55834;50.870;4.606;2023-02-04T01:19:09;13.37;;;8.07;;
68821;SDS011;55834;50.870;4.606;2023-02-04T01:21:36;13.18;;;7.22;;
68821;SDS011;55834;50.870;4.606;2023-02-04T01:24:02;13.25;;;7.78;;
68821;SDS011;55834;50.870;4.606;2023-02-04T01:26:27;11.13;;;6.53;;
68821;SDS011;55834;50.870;4.606;2023-02-04T01:28:52;14.00;;;7.83;;
68821;SDS011;55834;50.870;4.606;2023-02-04T01:31:18;12.85;;;7.03;;
68821;SDS011;55834;50.870;4.606;2023-02-04T01:33:43;11.00;;;6.53;;
68821;SDS011;55834;50.870;4.606;2023-02-04T01:36:09;15.30;;;7.63;;
68821;SDS011;55834;50.870;4.606;2023-02-04T01:38:34;13.20;;;7.30;;
68821;SDS011;55834;50.870;4.606;2023-02-04T01:41:00;15.60;;;7.30;;
68821;SDS011;55834;50.870;4.606;2023-02-04T01:43:25;9.80;;;6.20;;
68821;SDS011;55834;50.870;4.606;2023-02-04T01:45:51;20.75;;;9.60;;
68821;SDS011;55834;50.870;4.606;2023-02-04T01:48:18;14.18;;;7.75;;
68821;SDS011;55834;50.870;4.606;2023-02-04T01:50:46;10.77;;;6.10;;
68821;SDS011;55834;50.870;4.606;2023-02-04T01:53:21;17.52;;;8.15;;
68821;SDS011;55834;50.870;4.606;2023-02-04T01:55:50;13.45;;;8.80;;
68821;SDS011;55834;50.870;4.606;2023-02-04T01:58:16;10.48;;;7.22;;
68821;SDS011;55834;50.870;4.606;2023-02-04T02:00:42;13.05;;;9.05;;
68821;SDS011;55834;50.870;4.606;2023-02-04T02:03:08;11.48;;;7.75;;
68821;SDS011;55834;50.870;4.606;2023-02-04T02:05:43;11.52;;;7.68;;
68821;SDS011;55834;50.870;4.606;2023-02-04T02:08:10;11.43;;;8.55;;
68821;SDS011;55834;50.870;4.606;2023-02-04T02:10:37;12.80;;;8.32;;
68821;SDS011;55834;50.870;4.606;2023-02-04T02:13:05;9.65;;;7.22;;
68821;SDS011;55834;50.870;4.606;2023-02-04T02:15:32;9.13;;;6.53;;
68821;SDS011;55834;50.870;4.606;2023-02-04T02:17:58;10.55;;;7.47;;
68821;SDS011;55834;50.870;4.606;2023-02-04T02:20:24;6.90;;;4.57;;
68821;SDS011;55834;50.870;4.606;2023-02-04T02:25:34;8.52;;;5.75;;
68821;SDS011;55834;50.870;4.606;2023-02-04T02:28:00;8.65;;;4.53;;
68821;SDS011;55834;50.870;4.606;2023-02-04T02:30:28;8.60;;;5.40;;
68821;SDS011;55834;50.870;4.606;2023-02-04T02:32:53;8.30;;;5.80;;
68821;SDS011;55834;50.870;4.606;2023-02-04T02:35:19;8.02;;;4.97;;
68821;SDS011;55834;50.870;4.606;2023-02-04T02:37:45;9.18;;;5.53;;
68821;SDS011;55834;50.870;4.606;2023-02-04T02:40:11;8.10;;;4.27;;
68821;SDS011;55834;50.870;4.606;2023-02-04T02:42:37;7.40;;;4.75;;
68821;SDS011;55834;50.870;4.606;2023-02-04T02:45:05;7.35;;;4.20;;
68821;SDS011;55834;50.870;4.606;2023-02-04T02:47:37;8.95;;;4.68;;
68821;SDS011;55834;50.870;4.606;2023-02-04T02:50:02;6.80;;;3.95;;
68821;SDS011;55834;50.870;4.606;2023-02-04T02:52:28;4.30;;;3.55;;
68821;SDS011;55834;50.870;4.606;2023-02-04T02:54:53;4.13;;;3.40;;
68821;SDS011;55834;50.870;4.606;2023-02-04T02:57:19;5.30;;;3.17;;
68821;SDS011;55834;50.870;4.606;2023-02-04T02:59:46;5.05;;;3.03;;
68821;SDS011;55834;50.870;4.606;2023-02-04T03:02:12;8.10;;;3.78;;
68821;SDS011;55834;50.870;4.606;2023-02-04T03:04:42;5.18;;;3.03;;
68821;SDS011;55834;50.870;4.606;2023-02-04T03:07:10;3.78;;;2.33;;
68821;SDS011;55834;50.870;4.606;2023-02-04T03:09:37;4.22;;;3.22;;
68821;SDS011;55834;50.870;4.606;2023-02-04T03:12:03;4.13;;;2.78;;
68821;SDS011;55834;50.870;4.606;2023-02-04T03:14:29;5.85;;;3.10;;
68821;SDS011;55834;50.870;4.606;2023-02-04T03:16:55;3.65;;;2.00;;
68821;SDS011;55834;50.870;4.606;2023-02-04T03:19:24;3.53;;;2.85;;
68821;SDS011;55834;50.870;4.606;2023-02-04T03:21:51;3.63;;;2.80;;
68821;SDS011;55834;50.870;4.606;2023-02-04T03:24:17;4.53;;;2.97;;
68821;SDS011;55834;50.870;4.606;2023-02-04T03:26:43;5.72;;;2.67;;
68821;SDS011;55834;50.870;4.606;2023-02-04T03:29:08;3.80;;;2.53;;
68821;SDS011;55834;50.870;4.606;2023-02-04T03:31:34;3.80;;;1.85;;
68821;SDS011;55834;50.870;4.606;2023-02-04T03:34:01;2.50;;;1.77;;
68821;SDS011;55834;50.870;4.606;2023-02-04T03:36:27;2.10;;;1.90;;
68821;SDS011;55834;50.870;4.606;2023-02-04T03:38:53;2.53;;;2.10;;
68821;SDS011;55834;50.870;4.606;2023-02-04T03:41:18;3.67;;;2.20;;
68821;SDS011;55834;50.870;4.606;2023-02-04T03:43:44;2.47;;;1.63;;
68821;SDS011;55834;50.870;4.606;2023-02-04T03:46:09;6.20;;;1.70;;
68821;SDS011;55834;50.870;4.606;2023-02-04T03:48:34;2.70;;;1.80;;
68821;SDS011;55834;50.870;4.606;2023-02-04T03:51:00;2.10;;;1.70;;
68821;SDS011;55834;50.870;4.606;2023-02-04T03:53:25;3.67;;;1.93;;
68821;SDS011;55834;50.870;4.606;2023-02-04T03:55:50;3.30;;;2.07;;
68821;SDS011;55834;50.870;4.606;2023-02-04T03:58:16;4.43;;;2.43;;
68821;SDS011;55834;50.870;4.606;2023-02-04T04:00:41;3.43;;;2.20;;
68821;SDS011;55834;50.870;4.606;2023-02-04T04:03:06;3.53;;;2.17;;
68821;SDS011;55834;50.870;4.606;2023-02-04T04:05:32;4.37;;;2.57;;
68821;SDS011;55834;50.870;4.606;2023-02-04T04:07:57;4.88;;;2.30;;
68821;SDS011;55834;50.870;4.606;2023-02-04T04:10:23;3.83;;;2.40;;
68821;SDS011;55834;50.870;4.606;2023-02-04T04:12:48;4.45;;;2.83;;
68821;SDS011;55834;50.870;4.606;2023-02-04T04:15:14;3.57;;;2.30;;
68821;SDS011;55834;50.870;4.606;2023-02-04T04:17:39;3.63;;;1.80;;
68821;SDS011;55834;50.870;4.606;2023-02-04T04:20:04;4.00;;;2.17;;
68821;SDS011;55834;50.870;4.606;2023-02-04T04:22:30;4.75;;;2.50;;
68821;SDS011;55834;50.870;4.606;2023-02-04T04:24:55;6.10;;;3.22;;
68821;SDS011;55834;50.870;4.606;2023-02-04T04:27:21;4.30;;;2.43;;
68821;SDS011;55834;50.870;4.606;2023-02-04T04:29:46;3.87;;;1.87;;
68821;SDS011;55834;50.870;4.606;2023-02-04T04:32:11;4.50;;;1.90;;
68821;SDS011;55834;50.870;4.606;2023-02-04T04:34:37;3.27;;;2.17;;
68821;SDS011;55834;50.870;4.606;2023-02-04T04:37:02;3.33;;;2.23;;
68821;SDS011;55834;50.870;4.606;2023-02-04T04:39:27;3.07;;;2.00;;
68821;SDS011;55834;50.870;4.606;2023-02-04T04:41:52;4.80;;;2.40;;
68821;SDS011;55834;50.870;4.606;2023-02-04T04:44:18;4.50;;;2.07;;
68821;SDS011;55834;50.870;4.606;2023-02-04T04:46:43;2.90;;;2.10;;
68821;SDS011;55834;50.870;4.606;2023-02-04T04:49:08;2.87;;;2.17;;
68821;SDS011;55834;50.870;4.606;2023-02-04T04:51:34;3.03;;;1.83;;
68821;SDS011;55834;50.870;4.606;2023-02-04T04:53:59;3.97;;;2.73;;
68821;SDS011;55834;50.870;4.606;2023-02-04T04:56:24;5.27;;;2.83;;
68821;SDS011;55834;50.870;4.606;2023-02-04T04:58:50;6.43;;;3.57;;
68821;SDS011;55834;50.870;4.606;2023-02-04T05:01:15;5.28;;;2.88;;
68821;SDS011;55834;50.870;4.606;2023-02-04T05:03:41;7.33;;;4.00;;
68821;SDS011;55834;50.870;4.606;2023-02-04T05:06:06;8.40;;;4.60;;
68821;SDS011;55834;50.870;4.606;2023-02-04T05:08:33;6.57;;;3.60;;
68821;SDS011;55834;50.870;4.606;2023-02-04T05:10:59;7.82;;;4.63;;
68821;SDS011;55834;50.870;4.606;2023-02-04T05:13:26;10.10;;;4.82;;
68821;SDS011;55834;50.870;4.606;2023-02-04T05:15:51;4.90;;;3.33;;
68821;SDS011;55834;50.870;4.606;2023-02-04T05:18:16;7.17;;;3.60;;
68821;SDS011;55834;50.870;4.606;2023-02-04T05:20:41;9.03;;;4.20;;
68821;SDS011;55834;50.870;4.606;2023-02-04T05:23:07;6.10;;;3.37;;
68821;SDS011;55834;50.870;4.606;2023-02-04T05:25:32;6.90;;;4.00;;
68821;SDS011;55834;50.870;4.606;2023-02-04T05:27:57;9.83;;;4.90;;
68821;SDS011;55834;50.870;4.606;2023-02-04T05:30:23;9.93;;;3.90;;
68821;SDS011;55834;50.870;4.606;2023-02-04T05:32:48;7.20;;;3.97;;
68821;SDS011;55834;50.870;4.606;2023-02-04T05:35:13;6.27;;;3.10;;
68821;SDS011;55834;50.870;4.606;2023-02-04T05:37:39;9.40;;;4.60;;
68821;SDS011;55834;50.870;4.606;2023-02-04T05:40:04;7.43;;;4.30;;
68821;SDS011;55834;50.870;4.606;2023-02-04T05:42:30;5.70;;;4.20;;
68821;SDS011;55834;50.870;4.606;2023-02-04T05:44:55;8.77;;;3.53;;
68821;SDS011;55834;50.870;4.606;2023-02-04T05:47:20;7.83;;;4.20;;
68821;SDS011;55834;50.870;4.606;2023-02-04T05:49:46;6.57;;;3.43;;
68821;SDS011;55834;50.870;4.606;2023-02-04T05:52:11;13.53;;;5.53;;
68821;SDS011;55834;50.870;4.606;2023-02-04T05:54:36;7.25;;;4.72;;
68821;SDS011;55834;50.870;4.606;2023-02-04T05:57:02;6.95;;;4.25;;
68821;SDS011;55834;50.870;4.606;2023-02-04T05:59:27;7.15;;;3.75;;
68821;SDS011;55834;50.870;4.606;2023-02-04T06:01:53;10.77;;;6.00;;
68821;SDS011;55834;50.870;4.606;2023-02-04T06:04:18;8.50;;;4.70;;
68821;SDS011;55834;50.870;4.606;2023-02-04T06:06:44;8.67;;;4.63;;
68821;SDS011;55834;50.870;4.606;2023-02-04T06:09:09;7.78;;;3.95;;
68821;SDS011;55834;50.870;4.606;2023-02-04T06:11:34;9.67;;;5.00;;
68821;SDS011;55834;50.870;4.606;2023-02-04T06:14:00;9.57;;;4.55;;
68821;SDS011;55834;50.870;4.606;2023-02-04T06:16:25;8.02;;;3.22;;
68821;SDS011;55834;50.870;4.606;2023-02-04T06:18:50;8.57;;;3.97;;
68821;SDS011;55834;50.870;4.606;2023-02-04T06:21:16;10.77;;;5.43;;
68821;SDS011;55834;50.870;4.606;2023-02-04T06:23:42;8.15;;;4.25;;
68821;SDS011;55834;50.870;4.606;2023-02-04T06:26:07;9.40;;;4.95;;
68821;SDS011;55834;50.870;4.606;2023-02-04T06:28:32;9.13;;;4.90;;
68821;SDS011;55834;50.870;4.606;2023-02-04T06:30:58;7.57;;;4.07;;
68821;SDS011;55834;50.870;4.606;2023-02-04T06:33:23;7.70;;;3.83;;
68821;SDS011;55834;50.870;4.606;2023-02-04T06:35:49;8.23;;;3.67;;
68821;SDS011;55834;50.870;4.606;2023-02-04T06:38:14;7.30;;;3.85;;
68821;SDS011;55834;50.870;4.606;2023-02-04T06:40:40;9.07;;;5.10;;
68821;SDS011;55834;50.870;4.606;2023-02-04T06:43:05;9.35;;;5.25;;
68821;SDS011;55834;50.870;4.606;2023-02-04T06:45:31;11.97;;;5.63;;
68821;SDS011;55834;50.870;4.606;2023-02-04T06:47:56;13.70;;;7.00;;
68821;SDS011;55834;50.870;4.606;2023-02-04T06:50:21;14.50;;;7.03;;
68821;SDS011;55834;50.870;4.606;2023-02-04T06:52:47;11.53;;;5.37;;
68821;SDS011;55834;50.870;4.606;2023-02-04T06:55:13;8.73;;;4.30;;
68821;SDS011;55834;50.870;4.606;2023-02-04T06:57:39;9.82;;;4.75;;
68821;SDS011;55834;50.870;4.606;2023-02-04T07:00:06;7.88;;;3.80;;
68821;SDS011;55834;50.870;4.606;2023-02-04T07:02:33;8.98;;;3.72;;
68821;SDS011;55834;50.870;4.606;2023-02-04T07:04:59;11.70;;;5.20;;
68821;SDS011;55834;50.870;4.606;2023-02-04T07:07:25;6.30;;;3.50;;
68821;SDS011;55834;50.870;4.606;2023-02-04T07:09:51;6.80;;;3.85;;
68821;SDS011;55834;50.870;4.606;2023-02-04T07:12:16;9.87;;;4.40;;
68821;SDS011;55834;50.870;4.606;2023-02-04T07:14:42;9.97;;;3.57;;
68821;SDS011;55834;50.870;4.606;2023-02-04T07:17:07;7.87;;;3.60;;
68821;SDS011;55834;50.870;4.606;2023-02-04T07:19:32;8.10;;;3.80;;
68821;SDS011;55834;50.870;4.606;2023-02-04T07:21:59;9.43;;;4.35;;
68821;SDS011;55834;50.870;4.606;2023-02-04T07:24:24;8.13;;;4.13;;
68821;SDS011;55834;50.870;4.606;2023-02-04T07:26:49;9.57;;;5.40;;
68821;SDS011;55834;50.870;4.606;2023-02-04T07:29:15;8.50;;;3.50;;
68821;SDS011;55834;50.870;4.606;2023-02-04T07:31:42;5.40;;;3.30;;
68821;SDS011;55834;50.870;4.606;2023-02-04T07:34:09;4.50;;;2.75;;
68821;SDS011;55834;50.870;4.606;2023-02-04T07:36:35;8.68;;;4.97;;
68821;SDS011;55834;50.870;4.606;2023-02-04T07:39:01;10.20;;;3.97;;
68821;SDS011;55834;50.870;4.606;2023-02-04T07:41:26;13.73;;;5.87;;
68821;SDS011;55834;50.870;4.606;2023-02-04T07:43:51;9.80;;;5.00;;
68821;SDS011;55834;50.870;4.606;2023-02-04T07:46:16;8.80;;;4.43;;
68821;SDS011;55834;50.870;4.606;2023-02-04T07:48:42;8.60;;;4.70;;
68821;SDS011;55834;50.870;4.606;2023-02-04T07:51:07;7.73;;;4.10;;
68821;SDS011;55834;50.870;4.606;2023-02-04T07:53:34;6.63;;;4.38;;
68821;SDS011;55834;50.870;4.606;2023-02-04T07:56:00;7.28;;;3.30;;
68821;SDS011;55834;50.870;4.606;2023-02-04T07:58:25;6.93;;;3.40;;
68821;SDS011;55834;50.870;4.606;2023-02-04T08:00:50;8.37;;;3.07;;
68821;SDS011;55834;50.870;4.606;2023-02-04T08:03:16;7.47;;;4.67;;
68821;SDS011;55834;50.870;4.606;2023-02-04T08:05:41;5.38;;;3.15;;
68821;SDS011;55834;50.870;4.606;2023-02-04T08:08:07;9.23;;;5.15;;
68821;SDS011;55834;50.870;4.606;2023-02-04T08:10:32;10.23;;;4.97;;
68821;SDS011;55834;50.870;4.606;2023-02-04T08:12:58;7.55;;;3.75;;
68821;SDS011;55834;50.870;4.606;2023-02-04T08:15:23;7.10;;;3.70;;
68821;SDS011;55834;50.870;4.606;2023-02-04T08:17:48;8.03;;;3.87;;
68821;SDS011;55834;50.870;4.606;2023-02-04T08:20:14;8.20;;;4.23;;
68821;SDS011;55834;50.870;4.606;2023-02-04T08:22:40;6.82;;;3.60;;
68821;SDS011;55834;50.870;4.606;2023-02-04T08:25:05;10.60;;;3.90;;
68821;SDS011;55834;50.870;4.606;2023-02-04T08:27:31;9.55;;;4.45;;
68821;SDS011;55834;50.870;4.606;2023-02-04T08:29:56;10.83;;;6.00;;
68821;SDS011;55834;50.870;4.606;2023-02-04T08:32:22;11.33;;;6.73;;
68821;SDS011;55834;50.870;4.606;2023-02-04T08:34:47;10.60;;;6.23;;
68821;SDS011;55834;50.870;4.606;2023-02-04T08:37:13;10.75;;;6.32;;
68821;SDS011;55834;50.870;4.606;2023-02-04T08:39:39;12.95;;;6.93;;
68821;SDS011;55834;50.870;4.606;2023-02-04T08:42:08;11.32;;;6.07;;
68821;SDS011;55834;50.870;4.606;2023-02-04T08:44:34;10.73;;;5.10;;
68821;SDS011;55834;50.870;4.606;2023-02-04T08:46:59;10.68;;;4.63;;
68821;SDS011;55834;50.870;4.606;2023-02-04T08:49:24;9.57;;;4.93;;
68821;SDS011;55834;50.870;4.606;2023-02-04T08:51:50;13.67;;;7.67;;
68821;SDS011;55834;50.870;4.606;2023-02-04T08:54:15;15.73;;;7.63;;
68821;SDS011;55834;50.870;4.606;2023-02-04T08:56:40;15.07;;;7.80;;
68821;SDS011;55834;50.870;4.606;2023-02-04T08:59:05;14.07;;;7.03;;
68821;SDS011;55834;50.870;4.606;2023-02-04T09:01:31;13.03;;;6.83;;
68821;SDS011;55834;50.870;4.606;2023-02-04T09:03:56;13.20;;;8.10;;
68821;SDS011;55834;50.870;4.606;2023-02-04T09:06:23;12.48;;;6.38;;
68821;SDS011;55834;50.870;4.606;2023-02-04T09:08:48;12.53;;;6.10;;
68821;SDS011;55834;50.870;4.606;2023-02-04T09:11:13;11.27;;;5.73;;
68821;SDS011;55834;50.870;4.606;2023-02-04T09:13:39;12.60;;;4.73;;
68821;SDS011;55834;50.870;4.606;2023-02-04T09:16:04;13.20;;;6.20;;
68821;SDS011;55834;50.870;4.606;2023-02-04T09:18:30;9.82;;;4.28;;
68821;SDS011;55834;50.870;4.606;2023-02-04T09:20:56;10.70;;;4.63;;
68821;SDS011;55834;50.870;4.606;2023-02-04T09:23:22;11.55;;;5.20;;
68821;SDS011;55834;50.870;4.606;2023-02-04T09:25:48;13.90;;;5.38;;
68821;SDS011;55834;50.870;4.606;2023-02-04T09:28:15;14.40;;;7.05;;
68821;SDS011;55834;50.870;4.606;2023-02-04T09:30:41;13.18;;;5.88;;
68821;SDS011;55834;50.870;4.606;2023-02-04T09:33:10;16.95;;;7.78;;
68821;SDS011;55834;50.870;4.606;2023-02-04T09:35:36;18.02;;;6.85;;
68821;SDS011;55834;50.870;4.606;2023-02-04T09:38:01;16.48;;;5.80;;
68821;SDS011;55834;50.870;4.606;2023-02-04T09:40:27;12.02;;;5.22;;
68821;SDS011;55834;50.870;4.606;2023-02-04T09:42:58;10.13;;;4.82;;
68821;SDS011;55834;50.870;4.606;2023-02-04T09:45:26;9.18;;;4.95;;
68821;SDS011;55834;50.870;4.606;2023-02-04T09:47:52;10.23;;;5.20;;
68821;SDS011;55834;50.870;4.606;2023-02-04T09:50:20;8.10;;;4.30;;
68821;SDS011;55834;50.870;4.606;2023-02-04T09:52:48;7.40;;;4.07;;
68821;SDS011;55834;50.870;4.606;2023-02-04T09:55:17;7.95;;;4.55;;
68821;SDS011;55834;50.870;4.606;2023-02-04T09:57:45;7.47;;;3.13;;
68821;SDS011;55834;50.870;4.606;2023-02-04T10:00:19;6.20;;;3.95;;
68821;SDS011;55834;50.870;4.606;2023-02-04T10:02:46;8.45;;;3.88;;
68821;SDS011;55834;50.870;4.606;2023-02-04T10:05:16;6.50;;;3.75;;
68821;SDS011;55834;50.870;4.606;2023-02-04T10:07:44;6.78;;;3.35;;
68821;SDS011;55834;50.870;4.606;2023-02-04T10:10:18;5.68;;;2.90;;
68821;SDS011;55834;50.870;4.606;2023-02-04T10:12:46;11.50;;;3.97;;
68821;SDS011;55834;50.870;4.606;2023-02-04T10:15:13;6.75;;;3.53;;
68821;SDS011;55834;50.870;4.606;2023-02-04T10:17:40;4.72;;;3.15;;
68821;SDS011;55834;50.870;4.606;2023-02-04T10:20:15;7.07;;;3.95;;
68821;SDS011;55834;50.870;4.606;2023-02-04T10:22:42;5.95;;;3.88;;
68821;SDS011;55834;50.870;4.606;2023-02-04T10:25:12;5.50;;;3.13;;
68821;SDS011;55834;50.870;4.606;2023-02-04T10:30:20;5.30;;;2.78;;
68821;SDS011;55834;50.870;4.606;2023-02-04T10:32:52;3.72;;;2.85;;
68821;SDS011;55834;50.870;4.606;2023-02-04T10:35:18;2.70;;;2.22;;
68821;SDS011;55834;50.870;4.606;2023-02-04T10:37:44;2.35;;;1.73;;
68821;SDS011;55834;50.870;4.606;2023-02-04T10:40:32;3.35;;;1.85;;
68821;SDS011;55834;50.870;4.606;2023-02-04T10:43:05;3.65;;;1.98;;
68821;SDS011;55834;50.870;4.606;2023-02-04T10:45:56;3.22;;;2.78;;
68821;SDS011;55834;50.870;4.606;2023-02-04T10:48:28;2.88;;;2.22;;
68821;SDS011;55834;50.870;4.606;2023-02-04T10:50:55;3.88;;;1.92;;
68821;SDS011;55834;50.870;4.606;2023-02-04T10:53:22;2.10;;;1.83;;
68821;SDS011;55834;50.870;4.606;2023-02-04T10:56:13;2.40;;;1.52;;
68821;SDS011;55834;50.870;4.606;2023-02-04T10:58:42;1.15;;;1.05;;
68821;SDS011;55834;50.870;4.606;2023-02-04T11:01:08;1.52;;;0.93;;
68821;SDS011;55834;50.870;4.606;2023-02-04T11:03:36;2.58;;;1.58;;
68821;SDS011;55834;50.870;4.606;2023-02-04T11:06:04;1.67;;;1.40;;
68821;SDS011;55834;50.870;4.606;2023-02-04T11:08:35;2.53;;;1.27;;
68821;SDS011;55834;50.870;4.606;2023-02-04T11:11:05;2.00;;;0.90;;
68821;SDS011;55834;50.870;4.606;2023-02-04T11:13:44;2.75;;;1.52;;
68821;SDS011;55834;50.870;4.606;2023-02-04T11:19:29;3.40;;;1.48;;
68821;SDS011;55834;50.870;4.606;2023-02-04T11:24:20;2.23;;;1.20;;
68821;SDS011;55834;50.870;4.606;2023-02-04T11:26:49;4.10;;;1.23;;
68821;SDS011;55834;50.870;4.606;2023-02-04T11:29:30;2.40;;;1.27;;
68821;SDS011;55834;50.870;4.606;2023-02-04T11:34:44;1.85;;;0.85;;
68821;SDS011;55834;50.870;4.606;2023-02-04T11:37:12;1.80;;;1.10;;
68821;SDS011;55834;50.870;4.606;2023-02-04T11:40:01;1.00;;;0.75;;
68821;SDS011;55834;50.870;4.606;2023-02-04T11:42:57;3.70;;;0.88;;
68821;SDS011;55834;50.870;4.606;2023-02-04T11:45:37;1.42;;;0.85;;
68821;SDS011;55834;50.870;4.606;2023-02-04T11:48:14;1.92;;;1.52;;
68821;SDS011;55834;50.870;4.606;2023-02-04T11:50:42;1.63;;;1.25;;
68821;SDS011;55834;50.870;4.606;2023-02-04T11:53:19;2.45;;;1.73;;
68821;SDS011;55834;50.870;4.606;2023-02-04T11:55:49;2.00;;;0.80;;
68821;SDS011;55834;50.870;4.606;2023-02-04T11:58:15;0.90;;;0.90;;
68821;SDS011;55834;50.870;4.606;2023-02-04T12:00:42;1.80;;;1.05;;
68821;SDS011;55834;50.870;4.606;2023-02-04T12:03:25;3.05;;;1.70;;
68821;SDS011;55834;50.870;4.606;2023-02-04T12:05:51;4.18;;;2.25;;
68821;SDS011;55834;50.870;4.606;2023-02-04T12:11:29;2.30;;;1.90;;
68821;SDS011;55834;50.870;4.606;2023-02-04T12:13:54;6.40;;;2.03;;
68821;SDS011;55834;50.870;4.606;2023-02-04T12:18:47;2.78;;;2.17;;
68821;SDS011;55834;50.870;4.606;2023-02-04T12:21:12;2.75;;;1.88;;
68821;SDS011;55834;50.870;4.606;2023-02-04T12:23:38;2.17;;;1.73;;
68821;SDS011;55834;50.870;4.606;2023-02-04T12:26:06;2.22;;;2.05;;
68821;SDS011;55834;50.870;4.606;2023-02-04T12:28:32;2.47;;;2.00;;
68821;SDS011;55834;50.870;4.606;2023-02-04T12:30:57;3.33;;;2.53;;
68821;SDS011;55834;50.870;4.606;2023-02-04T12:33:23;3.13;;;1.70;;
68821;SDS011;55834;50.870;4.606;2023-02-04T12:35:48;2.20;;;1.90;;
68821;SDS011;55834;50.870;4.606;2023-02-04T12:38:13;2.07;;;1.87;;
68821;SDS011;55834;50.870;4.606;2023-02-04T12:40:39;3.15;;;2.60;;
68821;SDS011;55834;50.870;4.606;2023-02-04T12:43:04;2.55;;;2.00;;
68821;SDS011;55834;50.870;4.606;2023-02-04T12:45:30;2.10;;;1.90;;
68821;SDS011;55834;50.870;4.606;2023-02-04T12:47:56;3.10;;;2.80;;
68821;SDS011;55834;50.870;4.606;2023-02-04T12:50:24;2.60;;;2.08;;
68821;SDS011;55834;50.870;4.606;2023-02-04T12:52:57;2.45;;;1.70;;
68821;SDS011;55834;50.870;4.606;2023-02-04T12:55:24;2.72;;;2.28;;
68821;SDS011;55834;50.870;4.606;2023-02-04T12:57:51;2.53;;;2.20;;
68821;SDS011;55834;50.870;4.606;2023-02-04T13:00:16;2.90;;;2.65;;
68821;SDS011;55834;50.870;4.606;2023-02-04T13:02:44;4.20;;;3.80;;
68821;SDS011;55834;50.870;4.606;2023-02-04T13:05:09;3.88;;;2.80;;
68821;SDS011;55834;50.870;4.606;2023-02-04T13:07:35;3.28;;;2.83;;
68821;SDS011;55834;50.870;4.606;2023-02-04T13:10:01;7.00;;;3.28;;
68821;SDS011;55834;50.870;4.606;2023-02-04T13:12:26;3.83;;;3.38;;
68821;SDS011;55834;50.870;4.606;2023-02-04T13:14:52;6.85;;;4.45;;
68821;SDS011;55834;50.870;4.606;2023-02-04T13:17:17;4.68;;;3.50;;
68821;SDS011;55834;50.870;4.606;2023-02-04T13:19:43;5.40;;;2.90;;
68821;SDS011;55834;50.870;4.606;2023-02-04T13:22:08;6.87;;;4.17;;
68821;SDS011;55834;50.870;4.606;2023-02-04T13:24:33;5.53;;;3.28;;
68821;SDS011;55834;50.870;4.606;2023-02-04T13:26:59;7.37;;;5.57;;
68821;SDS011;55834;50.870;4.606;2023-02-04T13:29:24;5.23;;;4.57;;
68821;SDS011;55834;50.870;4.606;2023-02-04T13:31:49;6.18;;;4.07;;
68821;SDS011;55834;50.870;4.606;2023-02-04T13:34:16;5.78;;;4.45;;
68821;SDS011;55834;50.870;4.606;2023-02-04T13:36:42;7.05;;;4.95;;
68821;SDS011;55834;50.870;4.606;2023-02-04T13:39:08;6.23;;;5.00;;
68821;SDS011;55834;50.870;4.606;2023-02-04T13:41:33;6.55;;;4.82;;
68821;SDS011;55834;50.870;4.606;2023-02-04T13:44:00;5.40;;;3.72;;
68821;SDS011;55834;50.870;4.606;2023-02-04T13:46:25;7.72;;;5.05;;
68821;SDS011;55834;50.870;4.606;2023-02-04T13:48:50;9.30;;;6.53;;
68821;SDS011;55834;50.870;4.606;2023-02-04T13:51:16;8.40;;;5.00;;
68821;SDS011;55834;50.870;4.606;2023-02-04T13:53:41;5.45;;;4.63;;
68821;SDS011;55834;50.870;4.606;2023-02-04T13:56:06;9.82;;;4.30;;
68821;SDS011;55834;50.870;4.606;2023-02-04T13:58:32;8.68;;;6.18;;
68821;SDS011;55834;50.870;4.606;2023-02-04T14:00:58;7.10;;;4.07;;
68821;SDS011;55834;50.870;4.606;2023-02-04T14:03:23;8.30;;;4.47;;
68821;SDS011;55834;50.870;4.606;2023-02-04T14:05:49;8.43;;;6.18;;
68821;SDS011;55834;50.870;4.606;2023-02-04T14:08:15;9.23;;;5.63;;
68821;SDS011;55834;50.870;4.606;2023-02-04T14:10:41;10.57;;;5.68;;
68821;SDS011;55834;50.870;4.606;2023-02-04T14:13:06;7.83;;;4.37;;
68821;SDS011;55834;50.870;4.606;2023-02-04T14:15:31;9.60;;;4.93;;
68821;SDS011;55834;50.870;4.606;2023-02-04T14:17:58;9.18;;;5.18;;
68821;SDS011;55834;50.870;4.606;2023-02-04T14:20:24;6.97;;;5.10;;
68821;SDS011;55834;50.870;4.606;2023-02-04T14:22:49;9.17;;;5.23;;
68821;SDS011;55834;50.870;4.606;2023-02-04T14:25:15;6.87;;;4.63;;
68821;SDS011;55834;50.870;4.606;2023-02-04T14:27:40;7.43;;;5.77;;
68821;SDS011;55834;50.870;4.606;2023-02-04T14:30:08;7.57;;;4.90;;
68821;SDS011;55834;50.870;4.606;2023-02-04T14:32:40;11.25;;;7.15;;
68821;SDS011;55834;50.870;4.606;2023-02-04T14:35:06;9.60;;;5.27;;
68821;SDS011;55834;50.870;4.606;2023-02-04T14:37:31;14.02;;;7.00;;
68821;SDS011;55834;50.870;4.606;2023-02-04T14:39:57;13.23;;;7.93;;
68821;SDS011;55834;50.870;4.606;2023-02-04T14:42:22;12.30;;;6.57;;
68821;SDS011;55834;50.870;4.606;2023-02-04T14:44:47;12.77;;;8.50;;
68821;SDS011;55834;50.870;4.606;2023-02-04T14:47:13;11.77;;;7.53;;
68821;SDS011;55834;50.870;4.606;2023-02-04T14:49:38;13.93;;;7.73;;
68821;SDS011;55834;50.870;4.606;2023-02-04T14:52:03;14.43;;;8.00;;
68821;SDS011;55834;50.870;4.606;2023-02-04T14:54:29;20.27;;;7.85;;
68821;SDS011;55834;50.870;4.606;2023-02-04T14:56:54;11.83;;;7.10;;
68821;SDS011;55834;50.870;4.606;2023-02-04T14:59:20;9.07;;;5.27;;